sensor_id;sensor_type;location;lat;lon;timestamp;temperature;humidity
59148;DHT22;44930;52.878;6.168;2024-03-25T00:01:23;6.60;99.90
59148;DHT22;44930;52.878;6.168;2024-03-25T00:03:50;6.50;99.90
59148;DHT22;44930;52.878;6.168;2024-03-25T00:06:15;6.70;99.90
59148;DHT22;44930;52.878;6.168;2024-03-25T00:08:41;6.60;99.90
59148;DHT22;44930;52.878;6.168;2024-03-25T00:13:33;6.50;99.90
59148;DHT22;44930;52.878;6.168;2024-03-25T00:15:59;6.40;99.90
59148;DHT22;44930;52.878;6.168;2024-03-25T00:18:24;6.40;99.90
59148;DHT22;44930;52.878;6.168;2024-03-25T00:23:17;6.10;99.90
59148;DHT22;44930;52.878;6.168;2024-03-25T00:25:43;6.10;99.90
59148;DHT22;44930;52.878;6.168;2024-03-25T00:28:08;6.10;99.90
59148;DHT22;44930;52.878;6.168;2024-03-25T00:30:34;5.90;99.90
59148;DHT22;44930;52.878;6.168;2024-03-25T00:32:59;6.00;99.90
59148;DHT22;44930;52.878;6.168;2024-03-25T00:35:25;6.00;99.90
59148;DHT22;44930;52.878;6.168;2024-03-25T00:37:51;5.90;99.90
59148;DHT22;44930;52.878;6.168;2024-03-25T00:40:17;5.80;99.90
59148;DHT22;44930;52.878;6.168;2024-03-25T00:42:42;5.80;99.90
59148;DHT22;44930;52.878;6.168;2024-03-25T00:45:08;5.90;99.90
59148;DHT22;44930;52.878;6.168;2024-03-25T00:47:34;5.90;99.90
59148;DHT22;44930;52.878;6.168;2024-03-25T00:50:00;5.90;99.90
59148;DHT22;44930;52.878;6.168;2024-03-25T00:54:51;6.20;99.90
59148;DHT22;44930;52.878;6.168;2024-03-25T00:57:17;6.00;99.90
59148;DHT22;44930;52.878;6.168;2024-03-25T00:59:43;6.10;99.90
59148;DHT22;44930;52.878;6.168;2024-03-25T01:02:09;6.00;99.90
59148;DHT22;44930;52.878;6.168;2024-03-25T01:04:35;5.60;99.90
59148;DHT22;44930;52.878;6.168;2024-03-25T01:07:00;5.90;99.90
59148;DHT22;44930;52.878;6.168;2024-03-25T01:09:26;5.80;99.90
59148;DHT22;44930;52.878;6.168;2024-03-25T01:11:51;5.60;99.90
59148;DHT22;44930;52.878;6.168;2024-03-25T01:14:17;5.80;99.90
59148;DHT22;44930;52.878;6.168;2024-03-25T01:19:09;5.30;99.90
59148;DHT22;44930;52.878;6.168;2024-03-25T01:21:34;5.30;99.90
59148;DHT22;44930;52.878;6.168;2024-03-25T01:26:27;5.30;99.90
59148;DHT22;44930;52.878;6.168;2024-03-25T01:28:54;5.30;99.90
59148;DHT22;44930;52.878;6.168;2024-03-25T01:31:19;5.40;99.90
59148;DHT22;44930;52.878;6.168;2024-03-25T01:33:45;5.30;99.90
59148;DHT22;44930;52.878;6.168;2024-03-25T01:36:11;5.30;99.90
59148;DHT22;44930;52.878;6.168;2024-03-25T01:41:12;5.30;99.90
59148;DHT22;44930;52.878;6.168;2024-03-25T01:43:38;5.30;99.90
59148;DHT22;44930;52.878;6.168;2024-03-25T01:46:04;5.20;99.90
59148;DHT22;44930;52.878;6.168;2024-03-25T01:48:31;5.00;99.90
59148;DHT22;44930;52.878;6.168;2024-03-25T01:53:23;4.80;99.90
59148;DHT22;44930;52.878;6.168;2024-03-25T01:55:49;5.00;99.90
59148;DHT22;44930;52.878;6.168;2024-03-25T01:58:16;5.00;99.90
59148;DHT22;44930;52.878;6.168;2024-03-25T02:00:43;4.90;99.90
59148;DHT22;44930;52.878;6.168;2024-03-25T02:03:08;4.80;99.90
59148;DHT22;44930;52.878;6.168;2024-03-25T02:05:34;4.80;99.90
59148;DHT22;44930;52.878;6.168;2024-03-25T02:08:01;4.70;99.90
59148;DHT22;44930;52.878;6.168;2024-03-25T02:10:27;5.00;99.90
59148;DHT22;44930;52.878;6.168;2024-03-25T02:12:54;4.80;99.90
59148;DHT22;44930;52.878;6.168;2024-03-25T02:15:20;4.70;99.90
59148;DHT22;44930;52.878;6.168;2024-03-25T02:17:46;4.70;99.90
59148;DHT22;44930;52.878;6.168;2024-03-25T02:20:12;4.80;99.90
59148;DHT22;44930;52.878;6.168;2024-03-25T02:22:41;4.70;99.90
59148;DHT22;44930;52.878;6.168;2024-03-25T02:25:09;4.80;99.90
59148;DHT22;44930;52.878;6.168;2024-03-25T02:27:38;4.90;99.90
59148;DHT22;44930;52.878;6.168;2024-03-25T02:30:11;5.00;99.90
59148;DHT22;44930;52.878;6.168;2024-03-25T02:35:13;5.30;99.90
59148;DHT22;44930;52.878;6.168;2024-03-25T02:37:39;5.20;99.90
59148;DHT22;44930;52.878;6.168;2024-03-25T02:40:07;5.60;99.90
59148;DHT22;44930;52.878;6.168;2024-03-25T02:42:35;5.40;99.90
59148;DHT22;44930;52.878;6.168;2024-03-25T02:45:02;5.50;99.90
59148;DHT22;44930;52.878;6.168;2024-03-25T02:47:27;5.50;99.90
59148;DHT22;44930;52.878;6.168;2024-03-25T02:49:53;5.70;99.90
59148;DHT22;44930;52.878;6.168;2024-03-25T02:52:19;5.60;99.90
59148;DHT22;44930;52.878;6.168;2024-03-25T02:54:45;5.70;99.90
59148;DHT22;44930;52.878;6.168;2024-03-25T02:57:11;5.70;99.90
59148;DHT22;44930;52.878;6.168;2024-03-25T02:59:37;5.80;99.90
59148;DHT22;44930;52.878;6.168;2024-03-25T03:02:02;5.50;99.90
59148;DHT22;44930;52.878;6.168;2024-03-25T03:06:56;5.50;99.90
59148;DHT22;44930;52.878;6.168;2024-03-25T03:09:22;5.40;99.90
59148;DHT22;44930;52.878;6.168;2024-03-25T03:11:47;5.30;99.90
59148;DHT22;44930;52.878;6.168;2024-03-25T03:19:06;5.30;99.90
59148;DHT22;44930;52.878;6.168;2024-03-25T03:23:58;5.00;99.90
59148;DHT22;44930;52.878;6.168;2024-03-25T03:26:23;5.10;99.90
59148;DHT22;44930;52.878;6.168;2024-03-25T03:28:56;5.10;99.90
59148;DHT22;44930;52.878;6.168;2024-03-25T03:31:22;5.10;99.90
59148;DHT22;44930;52.878;6.168;2024-03-25T03:33:48;5.00;99.90
59148;DHT22;44930;52.878;6.168;2024-03-25T03:36:18;5.10;99.90
59148;DHT22;44930;52.878;6.168;2024-03-25T03:38:45;5.10;99.90
59148;DHT22;44930;52.878;6.168;2024-03-25T03:41:10;5.00;99.90
59148;DHT22;44930;52.878;6.168;2024-03-25T03:43:36;5.00;99.90
59148;DHT22;44930;52.878;6.168;2024-03-25T03:46:02;5.00;99.90
59148;DHT22;44930;52.878;6.168;2024-03-25T03:48:28;4.90;99.90
59148;DHT22;44930;52.878;6.168;2024-03-25T03:50:54;4.90;99.90
59148;DHT22;44930;52.878;6.168;2024-03-25T03:53:20;4.90;99.90
59148;DHT22;44930;52.878;6.168;2024-03-25T03:58:21;4.90;99.90
59148;DHT22;44930;52.878;6.168;2024-03-25T04:00:47;4.80;99.90
59148;DHT22;44930;52.878;6.168;2024-03-25T04:03:13;4.90;99.90
59148;DHT22;44930;52.878;6.168;2024-03-25T04:05:38;4.90;99.90
59148;DHT22;44930;52.878;6.168;2024-03-25T04:10:30;4.70;99.90
59148;DHT22;44930;52.878;6.168;2024-03-25T04:15:22;4.90;99.90
59148;DHT22;44930;52.878;6.168;2024-03-25T04:17:48;4.80;99.90
59148;DHT22;44930;52.878;6.168;2024-03-25T04:20:15;4.80;99.90
59148;DHT22;44930;52.878;6.168;2024-03-25T04:22:42;4.80;99.90
59148;DHT22;44930;52.878;6.168;2024-03-25T04:25:09;4.80;99.90
59148;DHT22;44930;52.878;6.168;2024-03-25T04:27:40;4.70;99.90
59148;DHT22;44930;52.878;6.168;2024-03-25T04:30:07;4.70;99.90
59148;DHT22;44930;52.878;6.168;2024-03-25T04:32:34;4.50;99.90
59148;DHT22;44930;52.878;6.168;2024-03-25T04:35:00;4.70;99.90
59148;DHT22;44930;52.878;6.168;2024-03-25T04:37:26;4.70;99.90
59148;DHT22;44930;52.878;6.168;2024-03-25T04:42:17;4.60;99.90
59148;DHT22;44930;52.878;6.168;2024-03-25T04:44:43;4.60;99.90
59148;DHT22;44930;52.878;6.168;2024-03-25T04:47:09;4.60;99.90
59148;DHT22;44930;52.878;6.168;2024-03-25T04:49:34;4.60;99.90
59148;DHT22;44930;52.878;6.168;2024-03-25T04:52:00;4.70;99.90
59148;DHT22;44930;52.878;6.168;2024-03-25T04:56:51;4.40;99.90
59148;DHT22;44930;52.878;6.168;2024-03-25T04:59:17;4.50;99.90
59148;DHT22;44930;52.878;6.168;2024-03-25T05:04:08;4.50;99.90
59148;DHT22;44930;52.878;6.168;2024-03-25T05:06:35;4.40;99.90
59148;DHT22;44930;52.878;6.168;2024-03-25T05:13:53;4.40;99.90
59148;DHT22;44930;52.878;6.168;2024-03-25T05:16:18;4.50;99.90
59148;DHT22;44930;52.878;6.168;2024-03-25T05:18:44;4.60;99.90
59148;DHT22;44930;52.878;6.168;2024-03-25T05:21:10;4.50;99.90
59148;DHT22;44930;52.878;6.168;2024-03-25T05:23:35;4.40;99.90
59148;DHT22;44930;52.878;6.168;2024-03-25T05:26:01;4.40;99.90
59148;DHT22;44930;52.878;6.168;2024-03-25T05:28:27;4.30;99.90
59148;DHT22;44930;52.878;6.168;2024-03-25T05:30:52;4.20;99.90
59148;DHT22;44930;52.878;6.168;2024-03-25T05:33:18;4.00;99.90
59148;DHT22;44930;52.878;6.168;2024-03-25T05:35:43;3.90;99.90
59148;DHT22;44930;52.878;6.168;2024-03-25T05:38:09;4.20;99.90
59148;DHT22;44930;52.878;6.168;2024-03-25T05:40:34;4.10;99.90
59148;DHT22;44930;52.878;6.168;2024-03-25T05:43:00;4.00;99.90
59148;DHT22;44930;52.878;6.168;2024-03-25T05:45:26;4.10;99.90
59148;DHT22;44930;52.878;6.168;2024-03-25T05:47:51;4.10;99.90
59148;DHT22;44930;52.878;6.168;2024-03-25T05:50:17;4.10;99.90
59148;DHT22;44930;52.878;6.168;2024-03-25T05:52:43;4.20;99.90
59148;DHT22;44930;52.878;6.168;2024-03-25T05:55:08;4.20;99.90
59148;DHT22;44930;52.878;6.168;2024-03-25T05:57:37;4.40;99.90
59148;DHT22;44930;52.878;6.168;2024-03-25T06:02:29;4.50;99.90
59148;DHT22;44930;52.878;6.168;2024-03-25T06:04:55;4.60;99.90
59148;DHT22;44930;52.878;6.168;2024-03-25T06:09:48;5.00;99.90
59148;DHT22;44930;52.878;6.168;2024-03-25T06:12:13;5.20;99.90
59148;DHT22;44930;52.878;6.168;2024-03-25T06:14:39;5.20;99.90
59148;DHT22;44930;52.878;6.168;2024-03-25T06:17:05;5.30;99.90
59148;DHT22;44930;52.878;6.168;2024-03-25T06:21:57;5.20;99.90
59148;DHT22;44930;52.878;6.168;2024-03-25T06:24:23;5.10;99.90
59148;DHT22;44930;52.878;6.168;2024-03-25T06:26:49;5.30;99.90
59148;DHT22;44930;52.878;6.168;2024-03-25T06:29:15;5.30;99.90
59148;DHT22;44930;52.878;6.168;2024-03-25T06:31:40;5.50;99.90
59148;DHT22;44930;52.878;6.168;2024-03-25T06:34:24;5.40;99.90
59148;DHT22;44930;52.878;6.168;2024-03-25T06:39:16;5.40;99.90
59148;DHT22;44930;52.878;6.168;2024-03-25T06:41:42;5.50;99.90
59148;DHT22;44930;52.878;6.168;2024-03-25T06:51:26;5.90;99.90
59148;DHT22;44930;52.878;6.168;2024-03-25T06:56:18;6.20;99.90
59148;DHT22;44930;52.878;6.168;2024-03-25T06:58:44;6.40;99.90
59148;DHT22;44930;52.878;6.168;2024-03-25T07:01:10;6.30;99.90
59148;DHT22;44930;52.878;6.168;2024-03-25T07:06:04;6.30;99.90
59148;DHT22;44930;52.878;6.168;2024-03-25T07:08:31;6.40;99.90
59148;DHT22;44930;52.878;6.168;2024-03-25T07:10:57;6.50;99.90
59148;DHT22;44930;52.878;6.168;2024-03-25T07:13:23;6.70;99.90
59148;DHT22;44930;52.878;6.168;2024-03-25T07:18:15;6.70;99.90
59148;DHT22;44930;52.878;6.168;2024-03-25T07:20:41;6.60;99.90
59148;DHT22;44930;52.878;6.168;2024-03-25T07:23:06;7.20;99.90
59148;DHT22;44930;52.878;6.168;2024-03-25T07:25:32;7.10;99.90
59148;DHT22;44930;52.878;6.168;2024-03-25T07:30:24;7.20;99.90
59148;DHT22;44930;52.878;6.168;2024-03-25T07:32:54;6.80;99.90
59148;DHT22;44930;52.878;6.168;2024-03-25T07:35:19;7.20;99.90
59148;DHT22;44930;52.878;6.168;2024-03-25T07:37:45;7.20;99.90
59148;DHT22;44930;52.878;6.168;2024-03-25T07:40:11;7.20;99.90
59148;DHT22;44930;52.878;6.168;2024-03-25T07:42:39;7.30;99.90
59148;DHT22;44930;52.878;6.168;2024-03-25T07:45:06;7.30;99.90
59148;DHT22;44930;52.878;6.168;2024-03-25T07:47:32;7.30;99.90
59148;DHT22;44930;52.878;6.168;2024-03-25T07:49:58;7.40;99.90
59148;DHT22;44930;52.878;6.168;2024-03-25T07:54:51;7.50;99.90
59148;DHT22;44930;52.878;6.168;2024-03-25T07:57:17;7.50;99.90
59148;DHT22;44930;52.878;6.168;2024-03-25T07:59:43;7.50;99.90
59148;DHT22;44930;52.878;6.168;2024-03-25T08:02:08;7.60;99.90
59148;DHT22;44930;52.878;6.168;2024-03-25T08:04:34;7.80;99.90
59148;DHT22;44930;52.878;6.168;2024-03-25T08:07:00;7.90;99.90
59148;DHT22;44930;52.878;6.168;2024-03-25T08:11:51;7.90;99.90
59148;DHT22;44930;52.878;6.168;2024-03-25T08:14:17;8.00;99.90
59148;DHT22;44930;52.878;6.168;2024-03-25T08:16:43;8.10;99.90
59148;DHT22;44930;52.878;6.168;2024-03-25T08:19:08;8.20;99.90
59148;DHT22;44930;52.878;6.168;2024-03-25T08:21:34;8.10;99.90
59148;DHT22;44930;52.878;6.168;2024-03-25T08:26:26;8.30;99.90
59148;DHT22;44930;52.878;6.168;2024-03-25T08:28:51;8.30;99.90
59148;DHT22;44930;52.878;6.168;2024-03-25T08:31:17;8.40;99.90
59148;DHT22;44930;52.878;6.168;2024-03-25T08:33:42;8.30;99.90
59148;DHT22;44930;52.878;6.168;2024-03-25T08:41:00;8.50;99.90
59148;DHT22;44930;52.878;6.168;2024-03-25T08:43:26;8.50;99.90
59148;DHT22;44930;52.878;6.168;2024-03-25T08:45:52;8.50;99.90
59148;DHT22;44930;52.878;6.168;2024-03-25T08:48:18;8.50;99.90
59148;DHT22;44930;52.878;6.168;2024-03-25T08:50:43;8.50;99.90
59148;DHT22;44930;52.878;6.168;2024-03-25T08:53:09;8.50;99.90
59148;DHT22;44930;52.878;6.168;2024-03-25T08:55:35;8.50;99.90
59148;DHT22;44930;52.878;6.168;2024-03-25T08:58:00;8.30;99.90
59148;DHT22;44930;52.878;6.168;2024-03-25T09:00:26;8.30;99.90
59148;DHT22;44930;52.878;6.168;2024-03-25T09:02:53;8.40;99.90
59148;DHT22;44930;52.878;6.168;2024-03-25T09:05:19;8.40;99.90
59148;DHT22;44930;52.878;6.168;2024-03-25T09:07:45;8.50;99.90
59148;DHT22;44930;52.878;6.168;2024-03-25T09:10:15;8.50;99.90
59148;DHT22;44930;52.878;6.168;2024-03-25T09:12:59;8.50;99.90
59148;DHT22;44930;52.878;6.168;2024-03-25T09:15:25;8.70;99.90
59148;DHT22;44930;52.878;6.168;2024-03-25T09:17:50;8.50;99.90
59148;DHT22;44930;52.878;6.168;2024-03-25T09:20:16;8.50;99.90
59148;DHT22;44930;52.878;6.168;2024-03-25T09:22:43;8.40;99.90
59148;DHT22;44930;52.878;6.168;2024-03-25T09:25:09;8.30;99.90
59148;DHT22;44930;52.878;6.168;2024-03-25T09:27:35;8.40;99.90
59148;DHT22;44930;52.878;6.168;2024-03-25T09:30:01;8.40;99.90
59148;DHT22;44930;52.878;6.168;2024-03-25T09:32:27;8.40;99.90
59148;DHT22;44930;52.878;6.168;2024-03-25T09:34:52;8.70;99.90
59148;DHT22;44930;52.878;6.168;2024-03-25T09:37:18;8.60;99.90
59148;DHT22;44930;52.878;6.168;2024-03-25T09:39:43;8.90;99.90
59148;DHT22;44930;52.878;6.168;2024-03-25T09:42:15;9.20;99.90
59148;DHT22;44930;52.878;6.168;2024-03-25T09:52:01;8.80;99.90
59148;DHT22;44930;52.878;6.168;2024-03-25T09:54:28;8.80;99.90
59148;DHT22;44930;52.878;6.168;2024-03-25T09:56:53;9.10;99.90
59148;DHT22;44930;52.878;6.168;2024-03-25T10:01:46;9.40;99.90
59148;DHT22;44930;52.878;6.168;2024-03-25T10:04:11;9.60;99.90
59148;DHT22;44930;52.878;6.168;2024-03-25T10:09:05;9.90;99.90
59148;DHT22;44930;52.878;6.168;2024-03-25T10:11:32;9.90;99.90
59148;DHT22;44930;52.878;6.168;2024-03-25T10:14:01;9.80;99.90
59148;DHT22;44930;52.878;6.168;2024-03-25T10:16:27;9.50;99.90
59148;DHT22;44930;52.878;6.168;2024-03-25T10:21:20;9.70;99.90
59148;DHT22;44930;52.878;6.168;2024-03-25T10:23:46;9.60;99.90
59148;DHT22;44930;52.878;6.168;2024-03-25T10:26:25;10.10;99.90
59148;DHT22;44930;52.878;6.168;2024-03-25T10:29:01;9.90;99.90
59148;DHT22;44930;52.878;6.168;2024-03-25T10:31:26;9.90;99.90
59148;DHT22;44930;52.878;6.168;2024-03-25T10:33:53;10.30;99.90
59148;DHT22;44930;52.878;6.168;2024-03-25T10:36:20;10.30;99.90
59148;DHT22;44930;52.878;6.168;2024-03-25T10:38:48;10.30;99.90
59148;DHT22;44930;52.878;6.168;2024-03-25T10:43:46;10.30;99.90
59148;DHT22;44930;52.878;6.168;2024-03-25T10:46:15;10.40;99.90
59148;DHT22;44930;52.878;6.168;2024-03-25T10:48:47;10.20;99.90
59148;DHT22;44930;52.878;6.168;2024-03-25T10:51:13;10.30;99.90
59148;DHT22;44930;52.878;6.168;2024-03-25T10:53:41;10.10;99.90
59148;DHT22;44930;52.878;6.168;2024-03-25T10:56:08;10.30;99.90
59148;DHT22;44930;52.878;6.168;2024-03-25T10:58:34;10.30;99.90
59148;DHT22;44930;52.878;6.168;2024-03-25T11:03:27;10.90;99.90
59148;DHT22;44930;52.878;6.168;2024-03-25T11:05:53;11.00;99.90
59148;DHT22;44930;52.878;6.168;2024-03-25T11:08:19;10.80;99.90
59148;DHT22;44930;52.878;6.168;2024-03-25T11:10:46;10.60;99.90
59148;DHT22;44930;52.878;6.168;2024-03-25T11:13:17;10.20;99.90
59148;DHT22;44930;52.878;6.168;2024-03-25T11:15:48;10.30;99.90
59148;DHT22;44930;52.878;6.168;2024-03-25T11:18:21;10.30;99.90
59148;DHT22;44930;52.878;6.168;2024-03-25T11:21:00;10.60;99.90
59148;DHT22;44930;52.878;6.168;2024-03-25T11:23:26;10.50;99.90
59148;DHT22;44930;52.878;6.168;2024-03-25T11:25:55;10.60;99.90
59148;DHT22;44930;52.878;6.168;2024-03-25T11:28:29;10.90;99.90
59148;DHT22;44930;52.878;6.168;2024-03-25T11:30:56;11.10;99.90
59148;DHT22;44930;52.878;6.168;2024-03-25T11:33:21;11.10;99.90
59148;DHT22;44930;52.878;6.168;2024-03-25T11:35:49;11.10;99.90
59148;DHT22;44930;52.878;6.168;2024-03-25T11:38:14;11.40;99.90
59148;DHT22;44930;52.878;6.168;2024-03-25T11:43:08;11.10;99.90
59148;DHT22;44930;52.878;6.168;2024-03-25T11:45:33;11.10;99.90
59148;DHT22;44930;52.878;6.168;2024-03-25T11:47:59;10.80;99.90
59148;DHT22;44930;52.878;6.168;2024-03-25T11:55:17;10.80;99.90
59148;DHT22;44930;52.878;6.168;2024-03-25T11:57:43;10.90;99.90
59148;DHT22;44930;52.878;6.168;2024-03-25T12:00:09;10.80;99.90
59148;DHT22;44930;52.878;6.168;2024-03-25T12:02:45;10.70;99.90
59148;DHT22;44930;52.878;6.168;2024-03-25T12:05:11;10.60;99.90
59148;DHT22;44930;52.878;6.168;2024-03-25T12:07:37;10.60;99.90
59148;DHT22;44930;52.878;6.168;2024-03-25T12:10:03;10.70;99.90
59148;DHT22;44930;52.878;6.168;2024-03-25T12:12:47;10.80;99.90
59148;DHT22;44930;52.878;6.168;2024-03-25T12:15:13;10.80;99.90
59148;DHT22;44930;52.878;6.168;2024-03-25T12:17:39;11.00;99.90
59148;DHT22;44930;52.878;6.168;2024-03-25T12:20:06;11.20;99.90
59148;DHT22;44930;52.878;6.168;2024-03-25T12:22:33;11.30;99.90
59148;DHT22;44930;52.878;6.168;2024-03-25T12:25:02;11.40;99.90
59148;DHT22;44930;52.878;6.168;2024-03-25T12:27:29;11.40;99.90
59148;DHT22;44930;52.878;6.168;2024-03-25T12:35:11;11.80;99.90
59148;DHT22;44930;52.878;6.168;2024-03-25T12:37:38;11.80;99.90
59148;DHT22;44930;52.878;6.168;2024-03-25T12:40:06;11.90;99.90
59148;DHT22;44930;52.878;6.168;2024-03-25T12:42:32;12.20;99.90
59148;DHT22;44930;52.878;6.168;2024-03-25T12:44:58;12.10;99.90
59148;DHT22;44930;52.878;6.168;2024-03-25T12:49:49;12.40;99.90
59148;DHT22;44930;52.878;6.168;2024-03-25T12:52:15;12.40;99.90
59148;DHT22;44930;52.878;6.168;2024-03-25T12:54:40;12.70;99.90
59148;DHT22;44930;52.878;6.168;2024-03-25T12:57:11;12.70;99.90
59148;DHT22;44930;52.878;6.168;2024-03-25T13:02:02;12.40;99.90
59148;DHT22;44930;52.878;6.168;2024-03-25T13:06:54;12.30;99.90
59148;DHT22;44930;52.878;6.168;2024-03-25T13:09:20;12.30;99.90
59148;DHT22;44930;52.878;6.168;2024-03-25T13:11:45;12.30;99.90
59148;DHT22;44930;52.878;6.168;2024-03-25T13:14:12;12.20;99.90
59148;DHT22;44930;52.878;6.168;2024-03-25T13:16:38;12.20;99.90
59148;DHT22;44930;52.878;6.168;2024-03-25T13:19:04;12.10;99.90
59148;DHT22;44930;52.878;6.168;2024-03-25T13:21:30;12.20;99.90
59148;DHT22;44930;52.878;6.168;2024-03-25T13:23:56;12.90;99.90
59148;DHT22;44930;52.878;6.168;2024-03-25T13:26:21;12.50;99.90
59148;DHT22;44930;52.878;6.168;2024-03-25T13:28:47;12.60;99.90
59148;DHT22;44930;52.878;6.168;2024-03-25T13:31:13;12.60;99.90
59148;DHT22;44930;52.878;6.168;2024-03-25T13:36:06;12.90;99.90
59148;DHT22;44930;52.878;6.168;2024-03-25T13:38:32;13.00;99.90
59148;DHT22;44930;52.878;6.168;2024-03-25T13:40:59;13.30;99.90
59148;DHT22;44930;52.878;6.168;2024-03-25T13:43:25;13.20;99.90
59148;DHT22;44930;52.878;6.168;2024-03-25T13:45:51;13.40;99.90
59148;DHT22;44930;52.878;6.168;2024-03-25T13:50:42;13.30;99.90
59148;DHT22;44930;52.878;6.168;2024-03-25T13:53:09;13.20;99.90
59148;DHT22;44930;52.878;6.168;2024-03-25T13:55:35;12.80;99.90
59148;DHT22;44930;52.878;6.168;2024-03-25T13:58:01;12.50;99.90
59148;DHT22;44930;52.878;6.168;2024-03-25T14:00:27;12.50;99.90
59148;DHT22;44930;52.878;6.168;2024-03-25T14:02:54;12.30;99.90
59148;DHT22;44930;52.878;6.168;2024-03-25T14:05:20;12.20;99.90
59148;DHT22;44930;52.878;6.168;2024-03-25T14:07:46;12.00;99.90
59148;DHT22;44930;52.878;6.168;2024-03-25T14:10:12;11.80;99.90
59148;DHT22;44930;52.878;6.168;2024-03-25T14:12:38;12.00;99.90
59148;DHT22;44930;52.878;6.168;2024-03-25T14:17:30;12.50;99.90
59148;DHT22;44930;52.878;6.168;2024-03-25T14:19:56;13.20;99.90
59148;DHT22;44930;52.878;6.168;2024-03-25T14:22:22;13.40;99.90
59148;DHT22;44930;52.878;6.168;2024-03-25T14:24:48;13.50;99.90
59148;DHT22;44930;52.878;6.168;2024-03-25T14:27:14;13.70;99.90
59148;DHT22;44930;52.878;6.168;2024-03-25T14:32:07;14.00;99.90
59148;DHT22;44930;52.878;6.168;2024-03-25T14:36:59;14.20;99.90
59148;DHT22;44930;52.878;6.168;2024-03-25T14:39:27;13.90;99.90
59148;DHT22;44930;52.878;6.168;2024-03-25T14:41:53;12.90;99.90
59148;DHT22;44930;52.878;6.168;2024-03-25T14:46:44;12.80;99.90
59148;DHT22;44930;52.878;6.168;2024-03-25T14:49:10;12.60;99.90
59148;DHT22;44930;52.878;6.168;2024-03-25T14:51:35;12.80;99.90
59148;DHT22;44930;52.878;6.168;2024-03-25T14:54:01;12.90;99.90
59148;DHT22;44930;52.878;6.168;2024-03-25T14:56:28;13.30;99.90
59148;DHT22;44930;52.878;6.168;2024-03-25T14:58:54;13.60;99.90
59148;DHT22;44930;52.878;6.168;2024-03-25T15:01:20;13.50;99.90
59148;DHT22;44930;52.878;6.168;2024-03-25T15:03:46;14.00;99.90
59148;DHT22;44930;52.878;6.168;2024-03-25T15:06:11;14.10;99.90
59148;DHT22;44930;52.878;6.168;2024-03-25T15:08:37;13.70;99.90
59148;DHT22;44930;52.878;6.168;2024-03-25T15:11:03;14.20;99.90
59148;DHT22;44930;52.878;6.168;2024-03-25T15:13:30;14.30;99.90
59148;DHT22;44930;52.878;6.168;2024-03-25T15:15:56;14.10;99.90
59148;DHT22;44930;52.878;6.168;2024-03-25T15:18:22;13.80;99.90
59148;DHT22;44930;52.878;6.168;2024-03-25T15:20:47;14.10;99.90
59148;DHT22;44930;52.878;6.168;2024-03-25T15:23:13;14.00;99.90
59148;DHT22;44930;52.878;6.168;2024-03-25T15:25:39;14.50;99.90
59148;DHT22;44930;52.878;6.168;2024-03-25T15:28:04;14.70;99.90
59148;DHT22;44930;52.878;6.168;2024-03-25T15:32:57;15.30;99.90
59148;DHT22;44930;52.878;6.168;2024-03-25T15:35:22;15.70;99.90
59148;DHT22;44930;52.878;6.168;2024-03-25T15:37:48;16.10;99.90
59148;DHT22;44930;52.878;6.168;2024-03-25T15:40:13;16.00;99.20
59148;DHT22;44930;52.878;6.168;2024-03-25T15:42:41;15.80;98.50
59148;DHT22;44930;52.878;6.168;2024-03-25T15:45:07;14.90;98.10
59148;DHT22;44930;52.878;6.168;2024-03-25T15:47:33;14.80;99.40
59148;DHT22;44930;52.878;6.168;2024-03-25T15:49:59;14.30;99.90
59148;DHT22;44930;52.878;6.168;2024-03-25T15:52:25;13.20;99.90
59148;DHT22;44930;52.878;6.168;2024-03-25T15:54:50;12.70;99.90
59148;DHT22;44930;52.878;6.168;2024-03-25T15:57:17;12.40;99.90
59148;DHT22;44930;52.878;6.168;2024-03-25T15:59:42;12.00;99.90
59148;DHT22;44930;52.878;6.168;2024-03-25T16:02:08;11.40;99.90
59148;DHT22;44930;52.878;6.168;2024-03-25T16:04:34;11.40;99.90
59148;DHT22;44930;52.878;6.168;2024-03-25T16:06:59;11.20;99.90
59148;DHT22;44930;52.878;6.168;2024-03-25T16:09:32;11.40;99.90
59148;DHT22;44930;52.878;6.168;2024-03-25T16:11:57;11.40;99.90
59148;DHT22;44930;52.878;6.168;2024-03-25T16:14:23;11.50;99.90
59148;DHT22;44930;52.878;6.168;2024-03-25T16:16:48;11.50;99.90
59148;DHT22;44930;52.878;6.168;2024-03-25T16:19:14;11.80;99.90
59148;DHT22;44930;52.878;6.168;2024-03-25T16:21:40;12.10;99.90
59148;DHT22;44930;52.878;6.168;2024-03-25T16:24:05;11.80;99.90
59148;DHT22;44930;52.878;6.168;2024-03-25T16:26:33;11.90;99.90
59148;DHT22;44930;52.878;6.168;2024-03-25T16:31:25;11.80;99.90
59148;DHT22;44930;52.878;6.168;2024-03-25T16:33:50;11.70;99.90
59148;DHT22;44930;52.878;6.168;2024-03-25T16:36:16;11.60;99.90
59148;DHT22;44930;52.878;6.168;2024-03-25T16:38:41;11.90;99.90
59148;DHT22;44930;52.878;6.168;2024-03-25T16:41:07;11.80;99.90
59148;DHT22;44930;52.878;6.168;2024-03-25T16:43:33;12.20;99.90
59148;DHT22;44930;52.878;6.168;2024-03-25T16:45:58;12.50;99.90
59148;DHT22;44930;52.878;6.168;2024-03-25T16:50:50;12.00;99.90
59148;DHT22;44930;52.878;6.168;2024-03-25T16:53:16;11.70;99.90
59148;DHT22;44930;52.878;6.168;2024-03-25T16:55:41;11.60;99.90
59148;DHT22;44930;52.878;6.168;2024-03-25T16:58:07;11.50;99.90
59148;DHT22;44930;52.878;6.168;2024-03-25T17:02:59;11.20;99.90
59148;DHT22;44930;52.878;6.168;2024-03-25T17:05:25;10.90;99.90
59148;DHT22;44930;52.878;6.168;2024-03-25T17:07:50;10.70;99.90
59148;DHT22;44930;52.878;6.168;2024-03-25T17:10:16;10.70;99.90
59148;DHT22;44930;52.878;6.168;2024-03-25T17:12:41;10.60;99.90
59148;DHT22;44930;52.878;6.168;2024-03-25T17:15:07;10.50;99.90
59148;DHT22;44930;52.878;6.168;2024-03-25T17:17:33;10.40;99.90
59148;DHT22;44930;52.878;6.168;2024-03-25T17:20:00;10.60;99.90
59148;DHT22;44930;52.878;6.168;2024-03-25T17:22:26;10.10;99.90
59148;DHT22;44930;52.878;6.168;2024-03-25T17:24:52;10.00;99.90
59148;DHT22;44930;52.878;6.168;2024-03-25T17:27:18;10.00;99.90
59148;DHT22;44930;52.878;6.168;2024-03-25T17:32:13;9.80;99.90
59148;DHT22;44930;52.878;6.168;2024-03-25T17:34:39;9.70;99.90
59148;DHT22;44930;52.878;6.168;2024-03-25T17:37:04;9.70;99.90
59148;DHT22;44930;52.878;6.168;2024-03-25T17:39:30;9.60;99.90
59148;DHT22;44930;52.878;6.168;2024-03-25T17:41:55;9.50;99.90
59148;DHT22;44930;52.878;6.168;2024-03-25T17:44:22;9.50;99.90
59148;DHT22;44930;52.878;6.168;2024-03-25T17:46:48;9.50;99.90
59148;DHT22;44930;52.878;6.168;2024-03-25T17:49:13;9.30;99.90
59148;DHT22;44930;52.878;6.168;2024-03-25T17:51:39;9.20;99.90
59148;DHT22;44930;52.878;6.168;2024-03-25T17:54:04;9.40;99.90
59148;DHT22;44930;52.878;6.168;2024-03-25T17:56:30;9.00;99.90
59148;DHT22;44930;52.878;6.168;2024-03-25T17:58:56;9.00;99.90
59148;DHT22;44930;52.878;6.168;2024-03-25T18:01:21;9.00;99.90
59148;DHT22;44930;52.878;6.168;2024-03-25T18:03:47;8.80;99.90
59148;DHT22;44930;52.878;6.168;2024-03-25T18:06:12;8.80;99.90
59148;DHT22;44930;52.878;6.168;2024-03-25T18:08:38;8.70;99.90